Alev Kaman — TCCN5 — position and weather

sailwx.info

Track history (hours):
 
Tides and Currents Weather Stations Pressure Air Temp Water Temp Dewpoint Dewpoint Depression Visibility Wind Speed Wind Dir Waves Ship Positions

Alev Kaman

Last reported at 2018-Apr-06 05:01 UTC. Time now 2018-Apr-26 13:36 UTC.
Position N 42°02' E 034°04'.
Warning: this ship's position is 20 days out of date.

Length 93 m; draft 6.3 m.

Type: Ship (hazmat cat C). MMSI: 271000716.

Date/timePositionNaut miles runAvg speedWind from/ knotsBaromVisibWave heightAir tempDewpointWater temp
2018-Apr-06 05:01N 42°02' E 034°04'0 8.8
2018-Apr-06 05:00N 42°02' E 034°04'4 8.9
2018-Apr-06 04:30N 42°02' E 033°58'4 9.0
2018-Apr-06 04:00N 42°02' E 033°52'4 8.9
2018-Apr-06 03:30N 42°02' E 033°46'4 8.9
2018-Apr-06 03:00N 42°02' E 033°40'5 8.8
2018-Apr-06 02:30N 42°03' E 033°34'4 8.7
2018-Apr-06 02:00N 42°03' E 033°28'7 8.6
2018-Apr-06 01:12N 42°03' E 033°19'2 8.8
2018-Apr-06 01:00N 42°03' E 033°17'4 9.0
2018-Apr-06 00:30N 42°02' E 033°11'5 9.1
2018-Apr-06 00:00N 42°01' E 033°05'5 9.3
2018-Apr-05 23:30N 41°59' E 032°59'5 9.3
2018-Apr-05 23:00N 41°57' E 032°53'5 9.4
2018-Apr-05 22:30N 41°56' E 032°47'5 9.2
2018-Apr-05 22:00N 41°54' E 032°41'5 9.3
2018-Apr-05 21:30N 41°53' E 032°35'5 9.3
2018-Apr-05 21:00N 41°52' E 032°29'5 9.3
2018-Apr-05 20:30N 41°51' E 032°23'5 9.3
2018-Apr-05 20:00N 41°49' E 032°18'5 9.3
2018-Apr-05 19:30N 41°46' E 032°13'5 9.4
2018-Apr-05 19:00N 41°43' E 032°08'5 9.4
2018-Apr-05 18:30N 41°40' E 032°03'5 9.5
2018-Apr-05 18:00N 41°37' E 031°58'5 9.6
2018-Apr-05 17:30N 41°35' E 031°52'5 9.6
2018-Apr-05 17:00N 41°33' E 031°46'5 9.4
2018-Apr-05 16:30N 41°31' E 031°40'5 9.0
2018-Apr-05 16:00N 41°30' E 031°35'4 9.0
2018-Apr-05 15:30N 41°30' E 031°29'5 9.2
2018-Apr-05 15:00N 41°29' E 031°22'5 9.0
2018-Apr-05 14:30N 41°29' E 031°16'4 8.6
2018-Apr-05 14:00N 41°28' E 031°11'5 8.9
2018-Apr-05 13:30N 41°25' E 031°07'  
Track history (hours):
 
Tides and Currents Weather Stations Pressure Air Temp Water Temp Dewpoint Dewpoint Depression Visibility Wind Speed Wind Dir Waves Ship Positions

Alev Kaman

Last reported at 2018-Apr-06 05:01 UTC. Time now 2018-Apr-26 13:36 UTC.
Position N 42°02' E 034°04'.
Warning: this ship's position is 20 days out of date.

Length 93 m; draft 6.3 m.

Type: Ship (hazmat cat C). MMSI: 271000716.

Date/timePositionNaut miles runAvg speedWind from/ knotsBaromVisibWave heightAir tempDewpointWater temp
2018-Apr-06 05:01N 42°02' E 034°04'0 8.8
2018-Apr-06 05:00N 42°02' E 034°04'4 8.9
2018-Apr-06 04:30N 42°02' E 033°58'4 9.0
2018-Apr-06 04:00N 42°02' E 033°52'4 8.9
2018-Apr-06 03:30N 42°02' E 033°46'4 8.9
2018-Apr-06 03:00N 42°02' E 033°40'5 8.8
2018-Apr-06 02:30N 42°03' E 033°34'4 8.7
2018-Apr-06 02:00N 42°03' E 033°28'7 8.6
2018-Apr-06 01:12N 42°03' E 033°19'2 8.8
2018-Apr-06 01:00N 42°03' E 033°17'4 9.0
2018-Apr-06 00:30N 42°02' E 033°11'5 9.1
2018-Apr-06 00:00N 42°01' E 033°05'5 9.3
2018-Apr-05 23:30N 41°59' E 032°59'5 9.3
2018-Apr-05 23:00N 41°57' E 032°53'5 9.4
2018-Apr-05 22:30N 41°56' E 032°47'5 9.2
2018-Apr-05 22:00N 41°54' E 032°41'5 9.3
2018-Apr-05 21:30N 41°53' E 032°35'5 9.3
2018-Apr-05 21:00N 41°52' E 032°29'5 9.3
2018-Apr-05 20:30N 41°51' E 032°23'5 9.3
2018-Apr-05 20:00N 41°49' E 032°18'5 9.3
2018-Apr-05 19:30N 41°46' E 032°13'5 9.4
2018-Apr-05 19:00N 41°43' E 032°08'5 9.4
2018-Apr-05 18:30N 41°40' E 032°03'5 9.5
2018-Apr-05 18:00N 41°37' E 031°58'5 9.6
2018-Apr-05 17:30N 41°35' E 031°52'5 9.6
2018-Apr-05 17:00N 41°33' E 031°46'5 9.4
2018-Apr-05 16:30N 41°31' E 031°40'5 9.0
2018-Apr-05 16:00N 41°30' E 031°35'4 9.0
2018-Apr-05 15:30N 41°30' E 031°29'5 9.2
2018-Apr-05 15:00N 41°29' E 031°22'5 9.0
2018-Apr-05 14:30N 41°29' E 031°16'4 8.6
2018-Apr-05 14:00N 41°28' E 031°11'5 8.9
2018-Apr-05 13:30N 41°25' E 031°07'  

Dump ship's entire track history